createdAt,value
2019-03-15T00:00:10.219Z,85.66
2019-03-15T00:02:10.314Z,86.04
2019-03-15T00:04:10.317Z,85.72
2019-03-15T00:06:10.222Z,85.43
2019-03-15T00:08:10.229Z,85.61
2019-03-15T00:10:10.200Z,85.60
2019-03-15T00:12:10.386Z,86.02
2019-03-15T00:14:09.966Z,86.08
2019-03-15T00:16:10.171Z,86.59
2019-03-15T00:18:10.155Z,86.48
2019-03-15T00:20:10.201Z,86.53
2019-03-15T00:22:10.131Z,86.79
2019-03-15T00:24:10.124Z,86.52
2019-03-15T00:26:10.235Z,86.66
2019-03-15T00:28:10.140Z,86.90
2019-03-15T00:30:10.268Z,86.77
2019-03-15T00:32:10.268Z,87.20
2019-03-15T00:34:10.176Z,87.46
2019-03-15T00:36:10.192Z,87.19
2019-03-15T00:38:10.097Z,87.59
2019-03-15T00:40:10.088Z,87.57
2019-03-15T00:42:10.175Z,87.56
2019-03-15T00:44:10.171Z,87.16
2019-03-15T00:46:10.244Z,87.43
2019-03-15T00:48:10.173Z,87.92
2019-03-15T00:50:10.269Z,87.97
2019-03-15T00:52:10.048Z,88.21
2019-03-15T00:54:10.398Z,88.08
2019-03-15T00:56:10.223Z,87.96
2019-03-15T00:58:09.970Z,88.32
2019-03-15T01:00:10.337Z,88.58
2019-03-15T01:02:11.030Z,88.45
2019-03-15T01:04:10.248Z,88.58
2019-03-15T01:06:10.379Z,88.72
2019-03-15T01:08:10.182Z,88.85
2019-03-15T01:10:10.328Z,88.58
2019-03-15T01:12:10.106Z,88.95
2019-03-15T01:14:10.750Z,89.14
2019-03-15T01:16:10.150Z,89.22
2019-03-15T01:18:10.225Z,89.34
2019-03-15T01:20:10.125Z,89.67
2019-03-15T01:22:10.362Z,89.69
2019-03-15T01:24:10.472Z,89.77
2019-03-15T01:26:10.275Z,89.46
2019-03-15T01:28:10.221Z,89.78
2019-03-15T01:30:10.166Z,89.69
2019-03-15T01:32:10.210Z,89.83
2019-03-15T01:34:10.271Z,89.92
2019-03-15T01:36:10.227Z,90.22
2019-03-15T01:38:10.347Z,89.73
2019-03-15T01:40:10.357Z,89.98
2019-03-15T01:42:10.302Z,90.19
2019-03-15T01:44:10.271Z,90.17
2019-03-15T01:46:10.243Z,90.01
2019-03-15T01:48:10.302Z,89.93
2019-03-15T01:50:11.274Z,90.30
2019-03-15T01:52:10.245Z,90.01
2019-03-15T01:54:10.190Z,89.99
2019-03-15T01:56:10.152Z,89.96
2019-03-15T01:58:10.258Z,89.92
2019-03-15T02:00:10.185Z,89.76
2019-03-15T02:02:10.078Z,89.76
2019-03-15T02:04:10.237Z,89.69
2019-03-15T02:06:10.283Z,89.91
2019-03-15T02:08:10.423Z,89.80
2019-03-15T02:10:10.974Z,89.73
2019-03-15T02:12:10.340Z,89.57
2019-03-15T02:14:10.282Z,89.75
2019-03-15T02:16:10.277Z,89.96
2019-03-15T02:18:10.009Z,89.97
2019-03-15T02:20:10.153Z,90.01
2019-03-15T02:22:10.296Z,89.85
2019-03-15T02:24:10.098Z,90.22
2019-03-15T02:26:10.361Z,89.99
2019-03-15T02:28:10.430Z,90.19
2019-03-15T02:30:10.342Z,89.91
2019-03-15T02:32:10.552Z,89.95
2019-03-15T02:34:10.435Z,90.21
2019-03-15T02:36:10.138Z,90.17
2019-03-15T02:38:10.248Z,89.94
2019-03-15T02:40:10.179Z,90.26
2019-03-15T02:42:10.817Z,90.21
2019-03-15T02:44:10.309Z,90.06
2019-03-15T02:46:10.437Z,90.32
2019-03-15T02:48:10.452Z,90.12
2019-03-15T02:50:10.349Z,90.01
2019-03-15T02:52:10.361Z,89.92
2019-03-15T02:54:10.374Z,90.22
2019-03-15T02:56:10.301Z,90.17
2019-03-15T02:58:10.048Z,90.47
2019-03-15T03:00:10.414Z,90.16
2019-03-15T03:02:10.310Z,89.91
2019-03-15T03:04:10.234Z,90.25
2019-03-15T03:06:10.229Z,89.74
2019-03-15T03:08:10.368Z,89.54
2019-03-15T03:10:10.552Z,89.69
2019-03-15T03:12:10.173Z,89.41
2019-03-15T03:14:10.012Z,89.44
2019-03-15T03:16:10.249Z,89.35
2019-03-15T03:18:10.177Z,89.08
2019-03-15T03:20:10.426Z,89.45
2019-03-15T03:22:10.293Z,89.01
2019-03-15T03:24:10.348Z,88.94
2019-03-15T03:26:10.354Z,89.13
2019-03-15T03:28:10.111Z,88.93
2019-03-15T03:30:10.512Z,89.36
2019-03-15T03:32:10.423Z,89.07
2019-03-15T03:34:12.670Z,89.02
2019-03-15T03:36:10.318Z,89.17
2019-03-15T03:38:10.782Z,89.09
2019-03-15T03:40:10.341Z,89.01
2019-03-15T03:42:13.125Z,89.18
2019-03-15T03:44:10.459Z,89.22
2019-03-15T03:46:10.032Z,89.19
2019-03-15T03:48:10.280Z,89.25
2019-03-15T03:50:10.157Z,89.72
2019-03-15T03:52:13.177Z,89.72
2019-03-15T03:54:10.518Z,89.65
2019-03-15T03:56:10.236Z,89.36
2019-03-15T03:58:10.115Z,89.76
2019-03-15T04:00:10.244Z,89.90
2019-03-15T04:02:10.561Z,89.80
2019-03-15T04:04:12.977Z,89.81
2019-03-15T04:06:10.297Z,89.94
2019-03-15T04:08:10.397Z,89.83
2019-03-15T04:10:10.375Z,90.11
2019-03-15T04:12:13.400Z,90.17
2019-03-15T04:14:10.341Z,90.10
2019-03-15T04:16:10.338Z,90.43
2019-03-15T04:18:10.215Z,90.59
2019-03-15T04:20:10.362Z,90.75
2019-03-15T04:22:10.436Z,90.39
2019-03-15T04:24:10.298Z,90.55
2019-03-15T04:26:10.187Z,91.15
2019-03-15T04:28:10.411Z,90.92
2019-03-15T04:30:10.420Z,91.11
2019-03-15T04:32:10.328Z,91.30
2019-03-15T04:34:10.346Z,91.42
2019-03-15T04:36:10.351Z,91.36
2019-03-15T04:38:10.381Z,91.13
2019-03-15T04:40:10.597Z,91.53
2019-03-15T04:42:13.461Z,91.26
2019-03-15T04:44:10.301Z,90.94
2019-03-15T04:46:10.210Z,91.51
2019-03-15T04:48:10.289Z,91.53
2019-03-15T04:50:10.440Z,91.34
2019-03-15T04:52:10.374Z,90.94
2019-03-15T04:54:10.320Z,91.12
2019-03-15T04:56:10.385Z,91.20
2019-03-15T04:58:10.437Z,90.83
2019-03-15T05:00:10.392Z,90.80
2019-03-15T05:02:10.310Z,91.37
2019-03-15T05:04:10.313Z,91.03
2019-03-15T05:06:10.476Z,91.50
2019-03-15T05:08:10.533Z,91.68
2019-03-15T05:10:10.454Z,91.03
2019-03-15T05:12:10.470Z,91.24
2019-03-15T05:14:10.395Z,91.43
2019-03-15T05:16:10.287Z,91.24
2019-03-15T05:18:10.496Z,91.18
2019-03-15T05:20:10.509Z,91.82
2019-03-15T05:22:10.454Z,91.88
2019-03-15T05:24:10.531Z,91.66
2019-03-15T05:26:10.541Z,91.97
2019-03-15T05:28:10.548Z,91.56
2019-03-15T05:30:10.570Z,91.80
2019-03-15T05:32:10.509Z,92.19
2019-03-15T05:34:10.583Z,91.89
2019-03-15T05:36:10.600Z,92.06
2019-03-15T05:38:10.709Z,92.16
2019-03-15T05:40:10.298Z,92.42
2019-03-15T05:42:10.533Z,92.26
2019-03-15T05:44:10.468Z,92.28
2019-03-15T05:46:10.553Z,91.97
2019-03-15T05:48:10.362Z,92.18
2019-03-15T05:50:10.683Z,92.71
2019-03-15T05:52:10.326Z,92.43
2019-03-15T05:54:10.616Z,92.84
2019-03-15T05:56:10.318Z,92.99
2019-03-15T05:58:10.532Z,93.25
2019-03-15T06:00:10.534Z,93.24
2019-03-15T06:02:10.441Z,93.46
2019-03-15T06:04:10.472Z,93.31
2019-03-15T06:06:10.223Z,93.45
2019-03-15T06:08:10.389Z,93.54
2019-03-15T06:10:10.269Z,93.78
2019-03-15T06:12:10.375Z,93.36
2019-03-15T06:14:10.534Z,94.00
2019-03-15T06:16:10.591Z,94.12
2019-03-15T06:18:10.637Z,93.90
2019-03-15T06:20:10.656Z,94.35
2019-03-15T06:22:10.600Z,94.31
2019-03-15T06:24:10.570Z,94.76
2019-03-15T06:26:10.540Z,95.00
2019-03-15T06:28:13.820Z,94.94
2019-03-15T06:30:10.493Z,94.99
2019-03-15T06:32:10.611Z,94.50
2019-03-15T06:34:10.633Z,94.77
2019-03-15T06:36:10.613Z,94.87
2019-03-15T06:38:10.547Z,95.16
2019-03-15T06:40:13.312Z,95.08
2019-03-15T06:42:10.723Z,95.45
2019-03-15T06:44:10.599Z,95.59
2019-03-15T06:46:10.707Z,95.44
2019-03-15T06:48:10.713Z,95.71
2019-03-15T06:50:10.862Z,95.41
2019-03-15T06:52:10.537Z,95.24
2019-03-15T06:54:11.722Z,95.30
2019-03-15T06:56:10.854Z,95.73
2019-03-15T06:58:10.449Z,95.37
2019-03-15T07:00:10.568Z,96.12
2019-03-15T07:02:10.489Z,96.14
2019-03-15T07:04:10.744Z,96.33
2019-03-15T07:06:10.503Z,96.16
2019-03-15T07:08:10.720Z,96.54
2019-03-15T07:10:10.630Z,96.43
2019-03-15T07:12:11.542Z,96.48
2019-03-15T07:14:10.560Z,96.22
2019-03-15T07:16:10.542Z,96.55
2019-03-15T07:18:10.674Z,96.90
2019-03-15T07:20:10.693Z,96.69
2019-03-15T07:22:10.670Z,96.89
2019-03-15T07:24:24.104Z,96.82
2019-03-15T07:26:10.721Z,96.97
2019-03-15T07:28:10.570Z,96.74
2019-03-15T07:30:10.778Z,97.10
2019-03-15T07:32:10.567Z,97.43
2019-03-15T07:34:13.707Z,97.41
2019-03-15T07:36:10.578Z,97.81
2019-03-15T07:38:10.494Z,97.75
2019-03-15T07:40:10.509Z,97.68
2019-03-15T07:42:10.620Z,97.82
2019-03-15T07:44:10.421Z,97.96
2019-03-15T07:46:10.529Z,98.03
2019-03-15T07:48:21.901Z,98.18
2019-03-15T07:50:13.590Z,97.97
2019-03-15T07:52:10.580Z,98.14
2019-03-15T07:54:10.575Z,98.06
2019-03-15T07:56:10.539Z,97.99
2019-03-15T07:58:10.606Z,98.44
2019-03-15T08:00:10.517Z,98.45
2019-03-15T08:02:10.413Z,98.71
2019-03-15T08:04:17.195Z,98.43
2019-03-15T08:06:10.502Z,98.70
2019-03-15T08:08:10.653Z,98.89
2019-03-15T08:10:10.490Z,98.90
2019-03-15T08:12:10.682Z,98.82
2019-03-15T08:14:10.594Z,99.02
2019-03-15T08:16:10.698Z,98.72
2019-03-15T08:18:10.622Z,98.80
2019-03-15T08:20:10.615Z,98.87
2019-03-15T08:22:10.515Z,98.97
2019-03-15T08:24:10.647Z,99.20
2019-03-15T08:26:10.659Z,98.87
2019-03-15T08:28:10.575Z,98.70
2019-03-15T08:30:10.785Z,98.74
2019-03-15T08:32:10.538Z,98.83
2019-03-15T08:34:10.489Z,98.84
2019-03-15T08:36:10.607Z,99.18
2019-03-15T08:38:10.549Z,99.11
2019-03-15T08:40:10.633Z,99.23
2019-03-15T08:42:10.558Z,99.20
2019-03-15T08:44:10.662Z,99.11
2019-03-15T08:46:10.577Z,99.18
2019-03-15T08:48:10.571Z,99.29
2019-03-15T08:50:10.894Z,99.58
2019-03-15T08:52:10.599Z,99.37
2019-03-15T08:54:10.698Z,99.08
2019-03-15T08:56:10.573Z,99.50
2019-03-15T08:58:15.317Z,99.42
2019-03-15T09:00:10.567Z,99.46
2019-03-15T09:02:10.542Z,99.52
2019-03-15T09:04:10.786Z,99.89
2019-03-15T09:06:10.783Z,99.56
2019-03-15T09:08:10.793Z,99.63
2019-03-15T09:10:21.894Z,99.69
2019-03-15T09:12:10.711Z,99.70
2019-03-15T09:14:10.840Z,99.91
2019-03-15T09:16:10.542Z,99.63
2019-03-15T09:18:10.626Z,99.73
2019-03-15T09:20:10.861Z,100.00
2019-03-15T09:22:10.681Z,99.92
2019-03-15T09:24:10.489Z,100.00
2019-03-15T09:26:10.799Z,100.00
2019-03-15T09:28:10.713Z,99.86
2019-03-15T09:30:22.515Z,99.51
2019-03-15T09:32:10.935Z,100.00
2019-03-15T09:34:10.779Z,100.00
2019-03-15T09:36:10.971Z,99.91
2019-03-15T09:38:10.778Z,99.83
2019-03-15T09:40:10.789Z,99.93
2019-03-15T09:42:10.662Z,99.87
2019-03-15T09:44:10.795Z,100.00
2019-03-15T09:46:10.750Z,100.00
2019-03-15T09:48:10.830Z,99.96
2019-03-15T09:50:21.087Z,99.97
2019-03-15T09:52:11.056Z,99.96
2019-03-15T09:54:10.948Z,99.86
2019-03-15T09:56:10.644Z,99.94
2019-03-15T09:58:10.827Z,100.00
2019-03-15T10:00:10.889Z,100.00
2019-03-15T10:02:10.626Z,99.79
2019-03-15T10:04:10.666Z,100.00
2019-03-15T10:06:15.723Z,100.00
2019-03-15T10:08:11.093Z,100.00
2019-03-15T10:10:13.859Z,100.00
2019-03-15T10:12:10.728Z,100.00
2019-03-15T10:14:10.599Z,100.00
2019-03-15T10:16:10.781Z,100.00
2019-03-15T10:18:10.758Z,100.00
2019-03-15T10:20:12.460Z,100.00
2019-03-15T10:22:10.711Z,100.00
2019-03-15T10:24:10.676Z,100.00
2019-03-15T10:26:10.738Z,100.00
2019-03-15T10:28:10.750Z,99.94
2019-03-15T10:30:10.752Z,99.89
2019-03-15T10:32:10.858Z,100.00
2019-03-15T10:34:10.829Z,100.00
2019-03-15T10:36:10.902Z,100.00
2019-03-15T10:38:10.806Z,100.00
2019-03-15T10:40:10.913Z,100.00
2019-03-15T10:42:10.885Z,100.00
2019-03-15T10:44:10.740Z,100.00
2019-03-15T10:46:10.752Z,100.00
2019-03-15T10:48:24.256Z,100.00
2019-03-15T10:50:10.769Z,100.00
2019-03-15T10:52:10.681Z,100.00
2019-03-15T10:54:10.697Z,100.00
2019-03-15T10:56:10.785Z,99.81
2019-03-15T10:58:10.774Z,100.00
2019-03-15T11:00:10.711Z,100.00
2019-03-15T11:02:10.836Z,100.00
2019-03-15T11:04:10.711Z,99.95
2019-03-15T11:06:10.862Z,99.99
2019-03-15T11:08:10.769Z,99.80
2019-03-15T11:10:10.788Z,99.61
2019-03-15T11:12:11.003Z,100.00
2019-03-15T11:14:10.817Z,99.86
2019-03-15T11:16:10.814Z,99.67
2019-03-15T11:18:10.777Z,99.87
2019-03-15T11:20:10.804Z,99.69
2019-03-15T11:22:10.955Z,99.50
2019-03-15T11:24:10.867Z,99.54
2019-03-15T11:26:13.916Z,99.72
2019-03-15T11:28:10.693Z,99.55
2019-03-15T11:30:11.000Z,99.60
2019-03-15T11:32:10.843Z,99.46
2019-03-15T11:34:10.900Z,99.42
2019-03-15T11:36:10.727Z,99.20
2019-03-15T11:38:11.055Z,99.44
2019-03-15T11:40:13.827Z,99.64
2019-03-15T11:42:10.865Z,99.39
2019-03-15T11:44:10.931Z,99.42
2019-03-15T11:46:10.886Z,99.35
2019-03-15T11:48:10.794Z,99.53
2019-03-15T11:50:11.029Z,99.52
2019-03-15T11:52:10.934Z,99.40
2019-03-15T11:54:10.936Z,98.90
2019-03-15T11:56:10.885Z,99.22
2019-03-15T11:58:10.965Z,99.11
2019-03-15T12:00:10.838Z,99.06
2019-03-15T12:02:11.054Z,98.85
2019-03-15T12:04:10.985Z,98.79
2019-03-15T12:06:10.905Z,98.72
2019-03-15T12:08:11.224Z,97.86
2019-03-15T12:10:11.027Z,97.73
2019-03-15T12:12:10.639Z,97.29
2019-03-15T12:14:10.853Z,96.70
2019-03-15T12:16:10.822Z,95.32
2019-03-15T12:18:10.977Z,92.99
2019-03-15T12:20:10.990Z,93.01
2019-03-15T12:22:10.771Z,92.71
2019-03-15T12:24:11.021Z,92.17
2019-03-15T12:26:11.018Z,90.83
2019-03-15T12:28:11.142Z,90.69
2019-03-15T12:30:10.946Z,91.24
2019-03-15T12:32:10.910Z,90.25
2019-03-15T12:34:10.976Z,90.10
2019-03-15T12:36:10.985Z,89.98
2019-03-15T12:38:11.194Z,89.16
2019-03-15T12:40:11.000Z,88.79
2019-03-15T12:42:11.432Z,88.95
2019-03-15T12:44:10.830Z,89.34
2019-03-15T12:46:10.957Z,87.47
2019-03-15T12:48:10.941Z,86.63
2019-03-15T12:50:11.061Z,85.84
2019-03-15T12:52:10.865Z,85.07
2019-03-15T12:54:11.085Z,85.14
2019-03-15T12:56:11.387Z,84.71
2019-03-15T12:58:10.933Z,85.28
2019-03-15T13:00:10.902Z,83.54
2019-03-15T13:02:11.232Z,84.73
2019-03-15T13:04:10.934Z,84.60
2019-03-15T13:06:11.151Z,85.22
2019-03-15T13:08:11.067Z,84.54
2019-03-15T13:10:11.097Z,82.88
2019-03-15T13:12:10.982Z,82.92
2019-03-15T13:14:10.998Z,83.70
2019-03-15T13:16:10.963Z,83.37
2019-03-15T13:18:11.013Z,84.48
2019-03-15T13:20:11.032Z,84.19
2019-03-15T13:22:11.040Z,85.05
2019-03-15T13:24:11.063Z,85.05
2019-03-15T13:26:11.042Z,85.71
2019-03-15T13:28:11.027Z,85.08
2019-03-15T13:30:11.096Z,86.38
2019-03-15T13:32:11.304Z,86.17
2019-03-15T13:34:11.033Z,87.19
2019-03-15T13:36:11.127Z,86.99
2019-03-15T13:38:11.269Z,87.83
2019-03-15T13:40:10.940Z,88.13
2019-03-15T13:42:11.296Z,88.41
2019-03-15T13:44:10.966Z,87.33
2019-03-15T13:46:10.919Z,87.56
2019-03-15T13:48:10.991Z,87.55
2019-03-15T13:50:11.012Z,87.94
2019-03-15T13:52:11.112Z,87.50
2019-03-15T13:54:11.128Z,87.37
2019-03-15T13:56:11.139Z,87.77
2019-03-15T13:58:11.039Z,87.51
2019-03-15T14:00:11.165Z,86.99
2019-03-15T14:02:11.578Z,87.61
2019-03-15T14:04:11.178Z,87.26
2019-03-15T14:06:10.992Z,87.76
2019-03-15T14:08:12.207Z,88.31
2019-03-15T14:10:11.016Z,88.05
2019-03-15T14:12:10.946Z,88.05
2019-03-15T14:14:11.450Z,88.08
2019-03-15T14:16:11.145Z,88.23
2019-03-15T14:18:10.959Z,88.32
2019-03-15T14:20:11.191Z,88.66
2019-03-15T14:22:11.210Z,87.27
2019-03-15T14:24:11.096Z,86.50
2019-03-15T14:26:11.076Z,86.93
2019-03-15T14:28:11.407Z,86.41
2019-03-15T14:30:11.541Z,86.40
2019-03-15T14:32:11.041Z,85.19
2019-03-15T14:34:11.278Z,83.99
2019-03-15T14:36:11.087Z,83.32
2019-03-15T14:38:11.487Z,82.25
2019-03-15T14:40:11.321Z,81.83
2019-03-15T14:42:11.105Z,81.91
2019-03-15T14:44:11.725Z,80.68
2019-03-15T14:46:12.239Z,80.95
2019-03-15T14:48:11.031Z,78.32
2019-03-15T14:50:10.823Z,78.30
2019-03-15T14:52:11.058Z,79.02
2019-03-15T14:54:11.271Z,79.77
2019-03-15T14:56:11.079Z,79.72
2019-03-15T14:58:11.091Z,78.42
2019-03-15T15:00:11.604Z,79.10
2019-03-15T15:02:11.493Z,79.18
2019-03-15T15:04:11.527Z,78.53
2019-03-15T15:06:11.546Z,78.36
2019-03-15T15:08:11.184Z,78.17
2019-03-15T15:10:11.158Z,78.94
2019-03-15T15:12:11.477Z,79.51
2019-03-15T15:14:11.289Z,80.04
2019-03-15T15:16:11.496Z,80.11
2019-03-15T15:18:11.455Z,79.82
2019-03-15T15:20:11.519Z,79.56
2019-03-15T15:22:11.575Z,79.81
2019-03-15T15:24:11.624Z,79.90
2019-03-15T15:26:11.665Z,79.26
2019-03-15T15:28:11.368Z,79.48
2019-03-15T15:30:11.582Z,79.61
2019-03-15T15:32:11.485Z,79.95
2019-03-15T15:34:11.528Z,79.90
2019-03-15T15:36:11.619Z,79.76
2019-03-15T15:38:11.642Z,80.52
2019-03-15T15:40:11.646Z,80.57
2019-03-15T15:42:11.653Z,80.81
2019-03-15T15:44:11.662Z,80.55
2019-03-15T15:46:11.882Z,81.03
2019-03-15T15:48:11.587Z,81.28
2019-03-15T15:50:11.773Z,81.38
2019-03-15T15:52:11.725Z,81.58
2019-03-15T15:54:11.626Z,82.21
2019-03-15T15:56:11.489Z,82.23
2019-03-15T15:58:17.703Z,81.96
2019-03-15T16:00:11.756Z,81.63
2019-03-15T16:02:11.563Z,81.84
2019-03-15T16:04:11.705Z,81.37
2019-03-15T16:06:11.589Z,81.31
2019-03-15T16:08:11.397Z,80.77
2019-03-15T16:10:11.403Z,81.22
2019-03-15T16:12:11.621Z,80.78
2019-03-15T16:14:11.732Z,81.04
2019-03-15T16:16:11.750Z,80.99
2019-03-15T16:18:11.686Z,80.41
2019-03-15T16:20:11.774Z,79.86
2019-03-15T16:22:11.576Z,80.46
2019-03-15T16:24:11.695Z,79.71
2019-03-15T16:26:11.541Z,80.06
2019-03-15T16:28:11.613Z,80.48
2019-03-15T16:30:11.589Z,80.22
2019-03-15T16:32:11.170Z,80.72
2019-03-15T16:34:11.447Z,81.09
2019-03-15T16:36:11.563Z,80.84
2019-03-15T16:38:11.604Z,82.00
2019-03-15T16:40:11.589Z,81.75
2019-03-15T16:42:11.600Z,82.08
2019-03-15T16:44:11.591Z,82.63
2019-03-15T16:46:11.722Z,83.06
2019-03-15T16:48:11.734Z,82.48
2019-03-15T16:50:11.746Z,82.12
2019-03-15T16:52:11.651Z,82.87
2019-03-15T16:54:11.252Z,82.59
2019-03-15T16:56:11.680Z,83.16
2019-03-15T16:58:11.210Z,83.04
2019-03-15T17:00:11.699Z,83.34
2019-03-15T17:02:12.030Z,83.18
2019-03-15T17:04:11.305Z,83.34
2019-03-15T17:06:11.640Z,83.66
2019-03-15T17:08:11.654Z,84.05
2019-03-15T17:10:11.753Z,84.38
2019-03-15T17:12:11.365Z,84.46
2019-03-15T17:14:24.832Z,84.71
2019-03-15T17:16:11.932Z,84.58
2019-03-15T17:18:11.763Z,84.65
2019-03-15T17:20:11.775Z,84.81
2019-03-15T17:22:11.821Z,84.91
2019-03-15T17:24:11.632Z,85.42
2019-03-15T17:26:11.826Z,84.75
2019-03-15T17:28:11.755Z,84.73
2019-03-15T17:30:11.563Z,84.94
2019-03-15T17:32:11.231Z,85.08
2019-03-15T17:34:11.628Z,85.31
2019-03-15T17:36:11.293Z,85.16
2019-03-15T17:38:11.284Z,85.09
2019-03-15T17:40:11.078Z,84.95
2019-03-15T17:42:11.755Z,85.12
2019-03-15T17:44:11.291Z,85.09
2019-03-15T17:46:12.941Z,84.86
2019-03-15T17:48:11.360Z,85.04
2019-03-15T17:50:11.373Z,84.81
2019-03-15T17:52:11.492Z,84.92
2019-03-15T17:54:11.300Z,84.69
2019-03-15T17:56:12.127Z,84.76
2019-03-15T17:58:11.729Z,84.55
2019-03-15T18:00:11.634Z,84.29
2019-03-15T18:02:12.055Z,84.14
2019-03-15T18:04:11.328Z,84.09
2019-03-15T18:06:11.375Z,83.92
2019-03-15T18:08:11.182Z,83.31
2019-03-15T18:10:11.600Z,83.35
2019-03-15T18:12:11.920Z,83.05
2019-03-15T18:14:11.760Z,83.27
2019-03-15T18:16:11.731Z,83.12
2019-03-15T18:18:11.739Z,83.68
2019-03-15T18:20:11.856Z,83.07
2019-03-15T18:22:11.866Z,83.36
2019-03-15T18:24:11.803Z,83.17
2019-03-15T18:26:11.889Z,83.45
2019-03-15T18:28:11.738Z,83.60
2019-03-15T18:30:11.705Z,83.52
2019-03-15T18:32:11.727Z,83.53
2019-03-15T18:34:11.734Z,82.90
2019-03-15T18:36:11.745Z,82.99
2019-03-15T18:38:11.761Z,83.32
2019-03-15T18:40:11.739Z,83.66
2019-03-15T18:42:11.778Z,83.87
2019-03-15T18:44:11.698Z,83.73
2019-03-15T18:46:11.808Z,84.05
2019-03-15T18:48:13.078Z,83.77
2019-03-15T18:50:11.774Z,83.81
2019-03-15T18:52:11.497Z,84.33
2019-03-15T18:54:17.343Z,84.72
2019-03-15T18:56:12.277Z,84.22
2019-03-15T18:58:11.766Z,84.66
2019-03-15T19:00:11.699Z,84.70
2019-03-15T19:02:11.721Z,84.70
2019-03-15T19:04:11.920Z,85.04
2019-03-15T19:06:11.838Z,84.94
2019-03-15T19:08:11.834Z,84.66
2019-03-15T19:10:11.602Z,84.34
2019-03-15T19:12:11.796Z,84.78
2019-03-15T19:14:11.539Z,84.65
2019-03-15T19:16:20.059Z,84.60
2019-03-15T19:18:11.674Z,84.89
2019-03-15T19:20:11.798Z,85.19
2019-03-15T19:22:11.808Z,85.29
2019-03-15T19:24:11.929Z,85.25
2019-03-15T19:26:11.931Z,85.42
2019-03-15T19:28:11.949Z,85.33
2019-03-15T19:30:11.858Z,85.66
2019-03-15T19:32:11.868Z,85.30
2019-03-15T19:34:11.782Z,85.82
2019-03-15T19:36:11.788Z,86.05
2019-03-15T19:38:14.707Z,85.80
2019-03-15T19:40:11.765Z,85.15
2019-03-15T19:42:11.719Z,85.31
2019-03-15T19:44:11.829Z,85.16
2019-03-15T19:46:11.987Z,85.64
2019-03-15T19:48:11.866Z,85.53
2019-03-15T19:50:11.870Z,85.53
2019-03-15T19:52:11.882Z,85.39
2019-03-15T19:54:11.798Z,85.05
2019-03-15T19:56:11.873Z,84.90
2019-03-15T19:58:11.943Z,84.68
2019-03-15T20:00:11.822Z,84.93
2019-03-15T20:02:11.937Z,84.62
2019-03-15T20:04:11.844Z,84.48
2019-03-15T20:06:11.962Z,84.89
2019-03-15T20:08:12.302Z,84.25
2019-03-15T20:10:11.867Z,84.61
2019-03-15T20:12:12.002Z,84.88
2019-03-15T20:14:12.011Z,85.15
2019-03-15T20:16:11.696Z,85.52
2019-03-15T20:18:11.830Z,85.89
2019-03-15T20:20:11.852Z,86.33
2019-03-15T20:22:11.724Z,86.56
2019-03-15T20:24:11.822Z,87.08
2019-03-15T20:26:12.185Z,86.84
2019-03-15T20:28:11.990Z,87.00
2019-03-15T20:30:21.272Z,87.13
2019-03-15T20:32:11.708Z,86.87
2019-03-15T20:34:11.939Z,86.92
2019-03-15T20:36:11.928Z,86.36
2019-03-15T20:38:11.943Z,86.31
2019-03-15T20:40:11.778Z,86.54
2019-03-15T20:42:11.974Z,87.34
2019-03-15T20:44:11.984Z,87.90
2019-03-15T20:46:12.096Z,87.96
2019-03-15T20:48:11.907Z,88.03
2019-03-15T20:50:11.916Z,88.19
2019-03-15T20:52:11.817Z,88.32
2019-03-15T20:54:11.845Z,88.35
2019-03-15T20:56:11.949Z,88.31
2019-03-15T20:58:11.898Z,88.03
2019-03-15T21:00:11.900Z,87.88
2019-03-15T21:02:11.785Z,87.86
2019-03-15T21:04:11.994Z,87.55
2019-03-15T21:06:12.007Z,87.38
2019-03-15T21:08:11.810Z,86.89
2019-03-15T21:10:11.930Z,86.82
2019-03-15T21:12:11.928Z,87.22
2019-03-15T21:14:12.057Z,87.21
2019-03-15T21:16:12.066Z,87.63
2019-03-15T21:18:11.884Z,87.95
2019-03-15T21:20:11.681Z,88.31
2019-03-15T21:22:12.097Z,88.55
2019-03-15T21:24:12.012Z,88.64
2019-03-15T21:26:12.017Z,89.08
2019-03-15T21:28:11.623Z,89.25
2019-03-15T21:30:11.569Z,89.38
2019-03-15T21:32:11.562Z,88.96
2019-03-15T21:34:11.548Z,89.28
2019-03-15T21:36:11.668Z,89.42
2019-03-15T21:38:11.577Z,89.58
2019-03-15T21:40:11.805Z,89.35
2019-03-15T21:42:11.658Z,89.56
2019-03-15T21:44:12.033Z,89.60
2019-03-15T21:46:11.605Z,89.82
2019-03-15T21:48:11.841Z,89.83
2019-03-15T21:50:11.849Z,90.30
2019-03-15T21:52:11.582Z,89.03
2019-03-15T21:54:11.666Z,89.36
2019-03-15T21:56:11.891Z,89.74
2019-03-15T21:58:11.691Z,90.05
2019-03-15T22:00:11.611Z,90.30
2019-03-15T22:02:11.515Z,90.76
2019-03-15T22:04:11.492Z,91.43
2019-03-15T22:06:11.543Z,91.98
2019-03-15T22:08:11.552Z,92.18
2019-03-15T22:10:11.676Z,92.73
2019-03-15T22:12:11.688Z,92.45
2019-03-15T22:14:11.509Z,92.86
2019-03-15T22:16:11.493Z,92.94
2019-03-15T22:18:11.909Z,93.09
2019-03-15T22:20:11.722Z,92.94
2019-03-15T22:22:11.938Z,92.71
2019-03-15T22:24:11.439Z,92.40
2019-03-15T22:26:11.604Z,92.34
2019-03-15T22:28:11.567Z,92.42
2019-03-15T22:30:11.569Z,92.60
2019-03-15T22:32:11.688Z,92.41
2019-03-15T22:34:11.611Z,92.17
2019-03-15T22:36:11.627Z,92.47
2019-03-15T22:38:25.193Z,92.43
2019-03-15T22:40:12.043Z,92.29
2019-03-15T22:42:11.751Z,92.13
2019-03-15T22:44:11.761Z,92.27
2019-03-15T22:46:11.564Z,92.06
2019-03-15T22:48:11.474Z,92.52
2019-03-15T22:50:11.590Z,92.64
2019-03-15T22:52:11.706Z,92.89
2019-03-15T22:54:11.503Z,92.80
2019-03-15T22:56:11.415Z,93.00
2019-03-15T22:58:11.637Z,93.46
2019-03-15T23:00:11.648Z,93.53
2019-03-15T23:02:11.657Z,93.79
2019-03-15T23:04:11.870Z,93.77
2019-03-15T23:06:11.683Z,93.68
2019-03-15T23:08:11.636Z,93.80
2019-03-15T23:10:11.596Z,93.79
2019-03-15T23:12:11.716Z,93.86
2019-03-15T23:14:11.533Z,94.22
2019-03-15T23:16:11.637Z,94.22
2019-03-15T23:18:11.644Z,94.31
2019-03-15T23:20:11.659Z,94.62
2019-03-15T23:22:11.803Z,94.54
2019-03-15T23:24:11.699Z,94.49
2019-03-15T23:26:11.602Z,94.41
2019-03-15T23:28:12.009Z,94.88
2019-03-15T23:30:11.733Z,94.74
2019-03-15T23:32:11.470Z,95.15
2019-03-15T23:34:11.636Z,95.08
2019-03-15T23:36:12.164Z,95.30
2019-03-15T23:38:11.677Z,95.12
2019-03-15T23:40:11.772Z,95.61
2019-03-15T23:42:11.691Z,95.79
2019-03-15T23:44:11.906Z,96.18
2019-03-15T23:46:11.827Z,95.64
2019-03-15T23:48:11.648Z,96.13
2019-03-15T23:50:11.927Z,96.47
2019-03-15T23:52:11.740Z,95.74
2019-03-15T23:54:11.963Z,95.61
2019-03-15T23:56:11.769Z,95.83
2019-03-15T23:58:11.574Z,95.73
